Time;durP1;ratioP1;P1;durP2;ratioP2;P2;SDS_P1;SDS_P2;PMS_P1;PMS_P2;Temp;Humidity;BMP_temperature;BMP_pressure;BME280_temperature;BME280_humidity;BME280_pressure;Samples;Min_cycle;Max_cycle;Signal;HPM_P1;HPM_P2
2023/07/11 00:00:48;;;;;;;3.25;1.30;;;25.40;44.80;;;;;;2292951;55;20917;-68
2023/07/11 00:03:17;;;;;;;2.70;1.33;;;25.40;44.90;;;;;;2292702;55;21669;-66
2023/07/11 00:05:43;;;;;;;3.47;1.60;;;25.40;45.00;;;;;;2273657;55;21010;-70
2023/07/11 00:08:10;;;;;;;2.80;1.40;;;25.30;45.00;;;;;;2292532;55;20991;-67
2023/07/11 00:10:36;;;;;;;2.50;1.20;;;25.30;45.10;;;;;;2527839;54;20924;-70
2023/07/11 00:13:03;;;;;;;2.70;1.30;;;25.30;45.20;;;;;;2527450;54;20923;-70
2023/07/11 00:15:29;;;;;;;3.03;1.37;;;25.20;45.30;;;;;;2292306;55;21417;-66
2023/07/11 00:17:56;;;;;;;2.95;1.50;;;25.20;45.40;;;;;;2292743;55;20924;-68
2023/07/11 00:20:25;;;;;;;2.60;1.40;;;25.20;45.50;;;;;;2526926;54;21028;-66
2023/07/11 00:22:51;;;;;;;3.22;1.50;;;25.20;45.60;;;;;;2292444;55;20948;-67
2023/07/11 00:25:20;;;;;;;2.97;1.40;;;25.20;45.60;;;;;;2292789;55;21408;-68
2023/07/11 00:27:46;;;;;;;2.75;1.30;;;25.10;45.60;;;;;;2293135;55;20917;-67
2023/07/11 00:30:13;;;;;;;2.90;1.48;;;25.10;45.70;;;;;;2527543;54;21465;-66
2023/07/11 00:32:40;;;;;;;2.87;1.50;;;25.10;45.80;;;;;;2528538;54;20908;-67
2023/07/11 00:35:07;;;;;;;2.90;1.50;;;25.00;45.80;;;;;;2502063;54;20973;-69
2023/07/11 00:37:35;;;;;;;2.90;1.50;;;25.10;45.90;;;;;;2528632;54;20901;-66
2023/07/11 00:40:01;;;;;;;3.62;1.50;;;25.10;46.00;;;;;;2292969;55;21004;-67
2023/07/11 00:42:32;;;;;;;3.90;1.65;;;25.00;46.00;;;;;;2528729;54;20932;-67
2023/07/11 00:45:01;;;;;;;3.12;1.62;;;25.00;46.10;;;;;;2527299;54;20968;-69
2023/07/11 00:47:27;;;;;;;3.45;1.70;;;25.00;46.10;;;;;;2293281;55;20959;-67
2023/07/11 00:50:02;;;;;;;3.17;1.70;;;25.00;46.70;;;;;;2292456;55;21680;-66
2023/07/11 00:52:31;;;;;;;2.78;1.58;;;25.00;46.30;;;;;;2275528;55;20949;-66
2023/07/11 00:54:58;;;;;;;4.97;1.55;;;24.90;46.20;;;;;;2525751;54;20999;-68
2023/07/11 00:57:44;;;;;;;3.00;1.70;;;25.00;46.30;;;;;;2287975;55;21422;-67
2023/07/11 01:00:11;;;;;;;2.92;1.62;;;24.90;46.50;;;;;;2487944;54;21011;-68
2023/07/11 01:02:39;;;;;;;2.83;1.42;;;24.90;46.30;;;;;;2292596;55;20953;-66
2023/07/11 01:05:06;;;;;;;5.28;1.62;;;24.80;46.30;;;;;;2291978;55;20965;-68
2023/07/11 01:07:36;;;;;;;2.80;1.45;;;24.80;46.30;;;;;;2509470;54;20941;-66
2023/07/11 01:10:03;;;;;;;2.75;1.50;;;24.80;46.50;;;;;;2519754;54;21394;-66
2023/07/11 01:12:30;;;;;;;2.80;1.37;;;24.80;46.50;;;;;;2500644;54;21358;-69
2023/07/11 01:14:56;;;;;;;2.40;1.25;;;24.70;46.50;;;;;;2527461;54;20990;-66
2023/07/11 01:17:33;;;;;;;2.72;1.27;;;24.70;46.60;;;;;;2527127;54;20944;-67
2023/07/11 01:20:01;;;;;;;2.67;1.37;;;24.60;46.80;;;;;;2527936;54;21456;-68
2023/07/11 01:22:29;;;;;;;3.10;1.50;;;24.60;46.60;;;;;;2292717;55;20941;-67
2023/07/11 01:24:58;;;;;;;3.22;1.50;;;24.60;46.70;;;;;;2291904;56;21097;-66
2023/07/11 01:27:30;;;;;;;3.03;1.60;;;24.60;46.80;;;;;;2293280;56;21076;-66
2023/07/11 01:30:00;;;;;;;3.00;1.50;;;24.60;46.90;;;;;;2292586;55;20907;-66
2023/07/11 01:32:27;;;;;;;2.87;1.42;;;24.50;46.70;;;;;;2292106;55;20983;-69
2023/07/11 01:34:57;;;;;;;3.17;1.60;;;24.50;46.80;;;;;;2292427;56;20920;-66
2023/07/11 01:37:23;;;;;;;3.55;1.48;;;24.50;47.00;;;;;;2292393;56;20969;-69
2023/07/11 01:39:49;;;;;;;3.17;1.60;;;24.40;46.90;;;;;;2293016;55;21501;-71
2023/07/11 01:42:16;;;;;;;2.50;1.30;;;24.30;46.90;;;;;;2292452;56;20908;-66
2023/07/11 01:44:42;;;;;;;2.67;1.35;;;24.40;47.10;;;;;;2528039;54;20960;-67
2023/07/11 01:47:08;;;;;;;4.40;1.60;;;24.30;47.10;;;;;;2292044;55;20916;-67
2023/07/11 01:49:37;;;;;;;3.08;1.60;;;24.30;47.20;;;;;;2293254;56;20916;-65
2023/07/11 01:52:08;;;;;;;2.72;1.40;;;24.30;47.40;;;;;;2526999;54;20932;-67
2023/07/11 01:54:36;;;;;;;2.75;1.50;;;24.30;47.60;;;;;;2292860;55;20920;-66
2023/07/11 01:57:03;;;;;;;2.90;1.45;;;24.20;47.40;;;;;;2526978;54;20928;-67
2023/07/11 01:59:29;;;;;;;2.92;1.40;;;24.30;47.50;;;;;;2500479;54;21661;-66
2023/07/11 02:01:55;;;;;;;2.50;1.37;;;24.20;47.60;;;;;;2527156;54;21012;-66
2023/07/11 02:04:22;;;;;;;2.78;1.40;;;24.20;47.70;;;;;;2293222;55;20975;-66
2023/07/11 02:06:49;;;;;;;3.45;1.75;;;24.20;47.70;;;;;;2292546;55;20920;-69
2023/07/11 02:09:19;;;;;;;2.87;1.48;;;24.10;47.70;;;;;;2506885;54;21723;-67
2023/07/11 02:11:46;;;;;;;3.60;1.87;;;24.10;47.80;;;;;;2288784;55;20929;-66
2023/07/11 02:14:13;;;;;;;2.80;1.55;;;24.10;47.90;;;;;;2292752;56;21770;-66
2023/07/11 02:16:44;;;;;;;2.95;1.62;;;24.10;47.90;;;;;;2528437;54;20916;-70
2023/07/11 02:19:14;;;;;;;2.90;1.70;;;24.00;48.00;;;;;;2292783;55;20948;-66
2023/07/11 02:21:40;;;;;;;3.53;1.73;;;24.00;48.20;;;;;;2292997;55;21560;-68
2023/07/11 02:24:08;;;;;;;3.05;1.70;;;23.90;48.10;;;;;;2527872;54;20932;-67
2023/07/11 02:26:34;;;;;;;3.00;1.62;;;23.90;48.20;;;;;;2274066;55;20920;-65
2023/07/11 02:29:00;;;;;;;3.37;1.80;;;23.90;48.20;;;;;;2293554;56;20992;-67
2023/07/11 02:31:27;;;;;;;3.40;1.58;;;23.90;48.30;;;;;;2292663;55;20904;-68
2023/07/11 02:33:54;;;;;;;2.87;1.52;;;23.90;48.40;;;;;;2292804;55;21047;-66
2023/07/11 02:36:20;;;;;;;3.47;1.80;;;23.90;48.50;;;;;;2527806;54;20943;-67
2023/07/11 02:38:47;;;;;;;3.87;1.92;;;23.80;48.50;;;;;;2527135;54;21480;-66
2023/07/11 02:41:13;;;;;;;3.42;1.60;;;23.80;48.60;;;;;;2270771;55;20924;-67
2023/07/11 02:43:39;;;;;;;3.15;1.80;;;23.80;48.60;;;;;;2292776;55;20984;-67
2023/07/11 02:46:06;;;;;;;2.70;1.40;;;23.80;48.70;;;;;;2527390;54;20923;-67
2023/07/11 02:48:33;;;;;;;3.47;1.87;;;23.80;48.70;;;;;;2527973;54;20900;-67
2023/07/11 02:51:00;;;;;;;3.47;1.70;;;23.80;48.80;;;;;;2527874;54;20952;-67
2023/07/11 02:53:28;;;;;;;3.17;1.80;;;23.80;48.90;;;;;;2293177;55;20984;-66
2023/07/11 02:55:55;;;;;;;3.25;1.70;;;23.80;48.90;;;;;;2292769;55;21465;-67
2023/07/11 02:59:00;;;;;;;3.12;1.67;;;23.80;48.90;;;;;;2512555;54;20965;-66
2023/07/11 03:01:31;;;;;;;3.62;2.00;;;23.70;49.30;;;;;;2525898;54;20928;-68
2023/07/11 03:03:58;;;;;;;3.00;1.85;;;23.80;49.10;;;;;;2293369;56;20992;-66
2023/07/11 03:06:56;;;;;;;3.37;1.70;;;23.70;48.90;;;;;;2293216;56;20928;-68
2023/07/11 03:09:23;;;;;;;3.33;1.55;;;23.70;49.30;;;;;;2527659;54;21849;-66
2023/07/11 03:11:50;;;;;;;2.67;1.48;;;23.70;49.00;;;;;;2292745;55;20942;-66
2023/07/11 03:14:16;;;;;;;3.72;1.80;;;23.60;49.10;;;;;;2500929;54;20973;-65
2023/07/11 03:16:42;;;;;;;3.05;1.33;;;23.60;49.10;;;;;;2528053;54;20929;-67
2023/07/11 03:19:09;;;;;;;3.10;1.62;;;23.60;49.20;;;;;;2281226;55;21013;-66
2023/07/11 03:21:35;;;;;;;3.60;1.70;;;23.60;49.20;;;;;;2286356;55;20917;-66
2023/07/11 03:24:01;;;;;;;3.37;1.67;;;23.60;49.30;;;;;;2291906;55;20924;-67
2023/07/11 03:26:29;;;;;;;3.65;1.62;;;23.50;49.30;;;;;;2292797;55;20936;-69
2023/07/11 03:28:55;;;;;;;3.80;1.52;;;23.50;49.40;;;;;;2527768;54;20989;-67
2023/07/11 03:31:24;;;;;;;5.47;1.62;;;23.50;49.40;;;;;;2275648;55;21002;-68
2023/07/11 03:33:51;;;;;;;2.85;1.60;;;23.50;49.50;;;;;;2509772;54;20905;-67
2023/07/11 03:36:20;;;;;;;3.28;1.60;;;23.50;49.60;;;;;;2527602;54;20988;-67
2023/07/11 03:38:46;;;;;;;3.17;1.92;;;23.50;49.70;;;;;;2527821;54;20885;-67
2023/07/11 03:41:13;;;;;;;3.53;1.85;;;23.40;49.60;;;;;;2289600;55;20916;-68
2023/07/11 03:43:40;;;;;;;3.87;2.25;;;23.40;49.60;;;;;;2292203;56;20928;-66
2023/07/11 03:46:07;;;;;;;4.68;1.77;;;23.40;49.70;;;;;;2291962;55;20983;-66
2023/07/11 03:48:33;;;;;;;3.30;1.90;;;23.40;49.80;;;;;;2527309;54;20945;-68
2023/07/11 03:50:59;;;;;;;3.00;1.80;;;23.40;49.80;;;;;;2293094;56;20940;-66
2023/07/11 03:53:26;;;;;;;3.28;1.70;;;23.40;49.90;;;;;;2527649;54;21000;-66
2023/07/11 03:55:52;;;;;;;3.40;1.65;;;23.30;49.80;;;;;;2292456;55;20956;-66
2023/07/11 03:58:18;;;;;;;3.35;1.73;;;23.30;49.90;;;;;;2292052;56;21000;-66
2023/07/11 04:00:46;;;;;;;3.40;1.80;;;23.30;50.00;;;;;;2528146;54;21002;-67
2023/07/11 04:03:15;;;;;;;3.15;1.70;;;23.30;50.00;;;;;;2432743;54;1795550;-67
2023/07/11 04:05:42;;;;;;;3.45;1.80;;;23.30;50.10;;;;;;2527806;54;20908;-66
2023/07/11 04:08:08;;;;;;;3.60;1.73;;;23.30;50.20;;;;;;2527442;54;20968;-68
2023/07/11 04:10:35;;;;;;;3.53;1.83;;;23.30;50.20;;;;;;2293135;55;20952;-66
2023/07/11 04:13:03;;;;;;;3.25;1.70;;;23.30;50.30;;;;;;2527648;54;21523;-65
2023/07/11 04:15:30;;;;;;;3.08;1.80;;;23.20;50.30;;;;;;2294526;55;21024;-66
2023/07/11 04:17:56;;;;;;;3.20;1.60;;;23.20;50.30;;;;;;2272593;55;20989;-67
2023/07/11 04:20:23;;;;;;;2.67;1.60;;;23.20;50.40;;;;;;2292038;55;20952;-66
2023/07/11 04:22:52;;;;;;;3.30;1.90;;;23.20;50.40;;;;;;2274262;55;21046;-65
2023/07/11 04:25:19;;;;;;;2.90;1.67;;;23.20;50.60;;;;;;2526538;54;21012;-65
2023/07/11 04:27:47;;;;;;;3.17;1.73;;;23.20;50.50;;;;;;2292969;55;21039;-65
2023/07/11 04:30:14;;;;;;;3.17;1.90;;;23.20;50.60;;;;;;2281520;55;21004;-65
2023/07/11 04:32:42;;;;;;;3.25;1.77;;;23.20;50.60;;;;;;2284485;55;20905;-65
2023/07/11 04:35:12;;;;;;;3.83;1.77;;;23.20;50.70;;;;;;2527516;54;20944;-65
2023/07/11 04:37:39;;;;;;;3.80;1.92;;;23.20;50.90;;;;;;2517769;54;20946;-65
2023/07/11 04:40:08;;;;;;;3.62;1.98;;;23.20;50.90;;;;;;2269252;55;20937;-67
2023/07/11 04:42:35;;;;;;;3.80;1.90;;;23.20;51.00;;;;;;2522122;54;20964;-66
2023/07/11 04:45:06;;;;;;;3.15;1.70;;;23.20;50.90;;;;;;2504337;54;21401;-67
2023/07/11 04:47:34;;;;;;;3.30;2.17;;;23.20;51.10;;;;;;2527601;54;20920;-65
2023/07/11 04:50:00;;;;;;;3.40;1.70;;;23.20;51.20;;;;;;2527781;54;20925;-66
2023/07/11 04:52:26;;;;;;;3.60;1.90;;;23.20;51.20;;;;;;2292039;55;21464;-66
2023/07/11 04:54:53;;;;;;;2.85;1.67;;;23.20;51.30;;;;;;2291720;55;20972;-66
2023/07/11 04:57:20;;;;;;;3.75;2.00;;;23.20;51.30;;;;;;2291794;55;21039;-67
2023/07/11 04:59:47;;;;;;;3.87;1.70;;;23.30;51.50;;;;;;2279898;55;20945;-67
2023/07/11 05:02:13;;;;;;;5.78;2.30;;;23.30;51.60;;;;;;2286059;55;21032;-65
2023/07/11 05:04:42;;;;;;;3.83;1.83;;;23.30;51.60;;;;;;2527116;54;20940;-67
2023/07/11 05:07:09;;;;;;;3.97;2.00;;;23.30;51.70;;;;;;2527310;54;20976;-65
2023/07/11 05:09:36;;;;;;;3.90;2.00;;;23.30;51.80;;;;;;2292627;55;21755;-66
2023/07/11 05:12:07;;;;;;;3.57;1.90;;;23.40;51.90;;;;;;2527745;54;20956;-66
2023/07/11 05:14:33;;;;;;;3.17;2.05;;;23.40;51.90;;;;;;2292239;55;21226;-69
2023/07/11 05:16:59;;;;;;;3.70;2.10;;;23.40;52.00;;;;;;2527593;54;20948;-70
2023/07/11 05:19:26;;;;;;;3.55;1.92;;;23.40;52.00;;;;;;2283116;55;22272;-69
2023/07/11 05:21:52;;;;;;;3.55;1.75;;;23.50;52.20;;;;;;2282316;55;20904;-68
2023/07/11 05:24:30;;;;;;;3.65;2.03;;;23.50;52.20;;;;;;2292666;56;20884;-69
2023/07/11 05:26:56;;;;;;;3.37;1.90;;;23.60;52.70;;;;;;2291820;55;21671;-68
2023/07/11 05:29:24;;;;;;;3.72;1.83;;;23.60;52.40;;;;;;2292074;55;20908;-70
2023/07/11 05:31:50;;;;;;;3.80;2.12;;;23.70;52.60;;;;;;2513005;54;21002;-67
2023/07/11 05:34:17;;;;;;;3.62;2.00;;;23.70;52.60;;;;;;2274348;55;21004;-71
2023/07/11 05:36:43;;;;;;;4.97;2.37;;;23.80;52.70;;;;;;2527219;54;21544;-69
2023/07/11 05:39:13;;;;;;;3.25;1.98;;;23.80;52.70;;;;;;2527529;54;20936;-68
2023/07/11 05:41:44;;;;;;;3.25;2.00;;;23.90;52.90;;;;;;2292686;55;20941;-69
2023/07/11 05:44:11;;;;;;;3.45;2.10;;;23.90;52.90;;;;;;2527556;54;21705;-68
2023/07/11 05:46:37;;;;;;;12.45;2.22;;;24.00;52.90;;;;;;2293183;55;20956;-69
2023/07/11 05:49:06;;;;;;;4.93;2.62;;;24.00;53.00;;;;;;2292326;55;21827;-68
2023/07/11 05:51:33;;;;;;;4.65;2.35;;;24.10;53.00;;;;;;2291887;55;21027;-69
2023/07/11 05:54:03;;;;;;;3.67;2.20;;;24.20;53.00;;;;;;2292477;55;20979;-70
2023/07/11 05:56:29;;;;;;;4.10;2.12;;;24.20;53.00;;;;;;2527794;54;20924;-71
2023/07/11 05:58:56;;;;;;;4.25;2.28;;;24.30;53.10;;;;;;2528010;54;20956;-70
2023/07/11 06:01:33;;;;;;;3.62;2.25;;;24.30;53.00;;;;;;2527494;54;21472;-72
2023/07/11 06:04:05;;;;;;;4.20;2.33;;;24.40;53.20;;;;;;2294674;55;20912;-69
2023/07/11 06:06:34;;;;;;;3.35;1.95;;;24.50;53.30;;;;;;2271909;55;20980;-71
2023/07/11 06:09:00;;;;;;;5.07;2.10;;;24.50;53.10;;;;;;2526838;54;20996;-72
2023/07/11 06:11:26;;;;;;;3.20;1.90;;;24.60;53.10;;;;;;2292314;55;20964;-72
2023/07/11 06:13:53;;;;;;;4.78;2.20;;;24.70;53.10;;;;;;2292201;55;20932;-69
2023/07/11 06:16:19;;;;;;;4.18;2.42;;;24.70;53.10;;;;;;2292136;55;20980;-70
2023/07/11 06:18:47;;;;;;;4.35;2.40;;;24.80;53.10;;;;;;2527123;54;21017;-72
2023/07/11 06:21:13;;;;;;;4.95;2.37;;;24.90;53.20;;;;;;2500563;54;20977;-70
2023/07/11 06:23:39;;;;;;;3.03;1.73;;;24.90;53.20;;;;;;2527763;54;20948;-70
2023/07/11 06:26:07;;;;;;;3.90;2.35;;;25.00;53.20;;;;;;2289167;55;21926;-70
2023/07/11 06:28:34;;;;;;;4.25;2.58;;;25.10;53.30;;;;;;2509870;54;21008;-71
2023/07/11 06:31:04;;;;;;;4.75;2.53;;;25.20;53.30;;;;;;2292491;55;21008;-70
2023/07/11 06:33:33;;;;;;;3.87;2.30;;;25.30;53.30;;;;;;2527148;54;21480;-70
2023/07/11 06:36:00;;;;;;;4.03;2.53;;;25.30;53.20;;;;;;2521629;54;20974;-68
2023/07/11 06:38:29;;;;;;;3.95;2.40;;;25.40;53.20;;;;;;2507808;54;21045;-72
2023/07/11 06:40:55;;;;;;;3.90;2.10;;;25.50;53.30;;;;;;2293387;55;20917;-70
2023/07/11 06:43:23;;;;;;;4.82;3.00;;;25.60;53.30;;;;;;2292699;55;20960;-69
2023/07/11 06:45:50;;;;;;;5.85;3.40;;;25.70;53.50;;;;;;2528241;54;21093;-72
2023/07/11 06:48:18;;;;;;;4.78;2.62;;;25.80;53.60;;;;;;2293119;56;20964;-70
2023/07/11 06:50:58;;;;;;;4.93;2.80;;;25.90;53.60;;;;;;2527230;54;20979;-71
2023/07/11 06:53:26;;;;;;;4.20;2.80;;;26.00;53.90;;;;;;2289525;55;21067;-70
2023/07/11 06:55:54;;;;;;;6.50;2.97;;;26.10;53.70;;;;;;2527786;54;20953;-70
2023/07/11 06:58:22;;;;;;;5.00;3.40;;;26.10;53.60;;;;;;2503786;54;21473;-71
2023/07/11 07:01:09;;;;;;;5.22;3.22;;;26.30;53.80;;;;;;2290992;55;20916;-71
2023/07/11 07:03:39;;;;;;;5.15;3.42;;;26.30;54.10;;;;;;2527317;54;20932;-71
2023/07/11 07:06:08;;;;;;;5.57;3.45;;;26.50;53.80;;;;;;2293199;55;20992;-70
2023/07/11 07:08:34;;;;;;;4.22;2.80;;;26.60;54.00;;;;;;2292749;55;20920;-70
2023/07/11 07:11:01;;;;;;;5.32;3.20;;;26.60;53.90;;;;;;2292765;55;20941;-72
2023/07/11 07:13:28;;;;;;;4.32;3.08;;;26.70;53.90;;;;;;2527712;54;21005;-71
2023/07/11 07:15:56;;;;;;;5.47;3.60;;;26.80;53.90;;;;;;2528560;54;21021;-72
2023/07/11 07:18:22;;;;;;;4.47;3.28;;;26.90;54.10;;;;;;2292613;55;21000;-70
2023/07/11 07:20:51;;;;;;;4.47;2.83;;;27.00;53.80;;;;;;2514346;54;21041;-71
2023/07/11 07:23:22;;;;;;;5.20;3.30;;;27.10;53.60;;;;;;2495260;55;20978;-71
2023/07/11 07:25:59;;;;;;;5.12;3.08;;;27.20;53.70;;;;;;2290813;55;20936;-72
2023/07/11 07:28:27;;;;;;;4.75;3.15;;;27.30;54.00;;;;;;2287144;55;20938;-70
2023/07/11 07:30:54;;;;;;;6.20;3.42;;;27.40;53.60;;;;;;2275284;55;21046;-71
2023/07/11 07:33:24;;;;;;;4.90;3.30;;;27.60;53.60;;;;;;2513035;54;20978;-71
2023/07/11 07:35:54;;;;;;;4.87;3.10;;;27.70;53.50;;;;;;2512070;54;20972;-72
2023/07/11 07:38:22;;;;;;;4.97;2.87;;;27.80;53.40;;;;;;2297323;55;21012;-70
2023/07/11 07:40:55;;;;;;;4.03;2.80;;;27.90;53.20;;;;;;2504644;54;20928;-71
2023/07/11 07:43:21;;;;;;;4.18;3.10;;;28.00;53.10;;;;;;2528112;54;21779;-72
2023/07/11 07:45:48;;;;;;;4.57;2.92;;;28.10;53.10;;;;;;2528099;54;20932;-71
2023/07/11 07:48:15;;;;;;;4.65;3.20;;;28.20;53.10;;;;;;2292603;55;21027;-72
2023/07/11 07:50:41;;;;;;;5.30;2.83;;;28.30;53.00;;;;;;2292977;55;21334;-71
2023/07/11 07:53:08;;;;;;;4.45;3.03;;;28.40;52.80;;;;;;2291997;55;20953;-70
2023/07/11 07:55:35;;;;;;;4.87;3.35;;;28.50;52.70;;;;;;2526687;54;20992;-70
2023/07/11 07:58:03;;;;;;;5.00;2.90;;;28.60;52.60;;;;;;2528647;54;20988;-72
2023/07/11 08:00:29;;;;;;;5.47;3.55;;;28.70;52.50;;;;;;2292621;55;20912;-70
2023/07/11 08:02:55;;;;;;;6.57;4.15;;;28.80;52.70;;;;;;2528076;54;21433;-73
2023/07/11 08:05:22;;;;;;;5.85;3.70;;;28.90;52.60;;;;;;2292603;55;20992;-72
2023/07/11 08:07:48;;;;;;;5.53;3.42;;;29.00;52.60;;;;;;2528578;54;21001;-73
2023/07/11 08:10:15;;;;;;;4.70;3.25;;;29.10;52.70;;;;;;2293289;55;20920;-70
2023/07/11 08:12:47;;;;;;;7.00;3.60;;;29.10;52.50;;;;;;2292590;56;20978;-72
2023/07/11 08:15:13;;;;;;;4.80;2.80;;;29.20;52.50;;;;;;2528072;54;21641;-72
2023/07/11 08:17:42;;;;;;;5.45;2.97;;;29.30;52.50;;;;;;2527381;54;20888;-71
2023/07/11 08:20:08;;;;;;;4.93;3.45;;;29.50;52.60;;;;;;2528211;54;21137;-73
2023/07/11 08:22:35;;;;;;;4.90;3.40;;;29.50;52.50;;;;;;2528244;54;20900;-71
2023/07/11 08:25:02;;;;;;;5.47;3.33;;;29.60;52.50;;;;;;2292325;55;21081;-71
2023/07/11 08:27:33;;;;;;;4.07;2.80;;;29.70;52.50;;;;;;2506642;54;20912;-71
2023/07/11 08:29:59;;;;;;;4.57;3.30;;;29.80;52.40;;;;;;2293013;55;21476;-73
2023/07/11 08:32:25;;;;;;;5.50;3.47;;;30.00;52.50;;;;;;2292703;55;20940;-71
2023/07/11 08:34:53;;;;;;;4.68;3.37;;;30.00;52.40;;;;;;2528192;54;20929;-73
2023/07/11 08:37:57;;;;;;;5.15;3.80;;;30.10;52.20;;;;;;2527580;54;20967;-70
2023/07/11 08:40:28;;;;;;;4.72;2.97;;;30.20;52.30;;;;;;2524347;54;21770;-71
2023/07/11 08:43:28;;;;;;;5.05;3.40;;;30.30;52.00;;;;;;2274974;55;20979;-71
2023/07/11 08:45:59;;;;;;;6.90;3.55;;;30.40;52.00;;;;;;2292611;55;21457;-71
2023/07/11 08:49:08;;;;;;;4.47;2.70;;;30.50;51.80;;;;;;2292669;56;21003;-71
2023/07/11 08:51:37;;;;;;;5.03;3.47;;;30.60;51.80;;;;;;2527306;54;20976;-71
2023/07/11 08:54:28;;;;;;;4.90;3.50;;;30.70;51.80;;;;;;2527790;54;21338;-71
2023/07/11 08:56:54;;;;;;;5.35;3.17;;;30.70;51.90;;;;;;2527626;54;20948;-71
2023/07/11 08:59:28;;;;;;;4.57;3.10;;;30.90;51.40;;;;;;2292549;55;21851;-71
2023/07/11 09:02:23;;;;;;;6.10;3.55;;;30.90;51.30;;;;;;2528106;54;20948;-72
2023/07/11 09:04:52;;;;;;;5.65;3.42;;;31.00;51.10;;;;;;2292660;55;21388;-72
2023/07/11 09:07:38;;;;;;;5.20;3.12;;;31.00;51.20;;;;;;2277421;55;21814;-69
2023/07/11 09:17:01;;;;;;;4.93;3.55;;;31.10;50.70;;;;;;2527609;54;20924;-73
2023/07/11 09:20:48;;;;;;;4.68;2.55;;;31.40;50.60;;;;;;2527786;54;20972;-72
2023/07/11 09:25:07;;;;;;;4.25;2.72;;;31.50;50.50;;;;;;2528537;54;20929;-71
2023/07/11 09:27:37;;;;;;;5.07;2.30;;;31.60;50.40;;;;;;2276840;55;20950;-73
2023/07/11 09:30:31;;;;;;;5.03;3.50;;;31.70;50.40;;;;;;2527498;54;21007;-71
2023/07/11 09:33:09;;;;;;;4.30;3.05;;;31.70;50.00;;;;;;2518241;54;21058;-70
2023/07/11 09:35:37;;;;;;;4.97;3.10;;;31.80;50.00;;;;;;2280556;55;20941;-70
2023/07/11 09:39:39;;;;;;;4.87;3.28;;;31.80;49.90;;;;;;2293338;55;20932;-70
2023/07/11 09:43:27;;;;;;;4.43;2.97;;;31.90;49.80;;;;;;2293018;55;20988;-71
2023/07/11 09:45:54;;;;;;;4.62;2.25;;;32.10;49.60;;;;;;2295021;55;20980;-73
2023/07/11 09:48:27;;;;;;;5.28;2.60;;;32.10;49.70;;;;;;2503384;54;20944;-70
2023/07/11 09:51:24;;;;;;;3.95;2.28;;;32.20;49.60;;;;;;2293282;55;20924;-71
2023/07/11 09:53:54;;;;;;;6.10;2.60;;;32.20;49.60;;;;;;2293274;55;20931;-70
2023/07/11 09:56:22;;;;;;;4.57;2.92;;;32.30;49.60;;;;;;2528372;54;21012;-70
2023/07/11 09:59:00;;;;;;;5.05;2.78;;;32.30;49.50;;;;;;2528665;54;21391;-70
2023/07/11 10:01:30;;;;;;;4.70;3.20;;;32.50;49.30;;;;;;2292719;55;21031;-73
2023/07/11 10:03:57;;;;;;;5.22;3.35;;;32.50;49.30;;;;;;2293168;55;20971;-70
2023/07/11 10:06:35;;;;;;;6.25;3.47;;;32.50;49.10;;;;;;2293174;55;20916;-71
2023/07/11 10:09:42;;;;;;;5.90;3.10;;;32.60;48.90;;;;;;2528919;54;20937;-72
2023/07/11 10:12:23;;;;;;;3.72;2.47;;;32.70;49.00;;;;;;2528561;54;21027;-71
2023/07/11 10:14:56;;;;;;;6.47;2.95;;;32.80;48.60;;;;;;2527103;54;21060;-71
2023/07/11 10:18:08;;;;;;;3.83;2.67;;;32.80;48.40;;;;;;2293535;55;20944;-70
2023/07/11 10:20:35;;;;;;;3.72;2.80;;;32.90;48.40;;;;;;2293104;55;21023;-74
2023/07/11 10:23:05;;;;;;;5.20;3.03;;;33.00;48.30;;;;;;2292585;55;20920;-71
2023/07/11 10:25:32;;;;;;;4.68;3.05;;;33.00;48.20;;;;;;2527721;54;20928;-69
2023/07/11 10:28:42;;;;;;;6.03;3.35;;;33.10;47.90;;;;;;2293017;55;20984;-70
2023/07/11 10:31:15;;;;;;;4.78;3.35;;;33.20;47.70;;;;;;2295682;54;20959;-71
2023/07/11 10:33:49;;;;;;;5.07;2.62;;;33.20;47.40;;;;;;2292648;54;20963;-70
2023/07/11 10:36:21;;;;;;;4.37;2.70;;;33.30;47.40;;;;;;2295652;54;21836;-70
2023/07/11 10:38:56;;;;;;;3.97;2.65;;;33.30;47.40;;;;;;2291934;54;21396;-73
2023/07/11 10:41:37;;;;;;;3.75;2.37;;;33.40;47.30;;;;;;2528187;54;20974;-70
2023/07/11 10:44:04;;;;;;;3.70;2.40;;;33.40;47.10;;;;;;2292054;54;20979;-71
2023/07/11 10:46:42;;;;;;;4.18;2.53;;;33.50;46.90;;;;;;2292817;54;21459;-71
2023/07/11 10:49:25;;;;;;;4.22;2.50;;;33.60;46.30;;;;;;2527392;54;21002;-71
2023/07/11 10:52:05;;;;;;;4.65;2.67;;;33.60;45.50;;;;;;2528046;54;21160;-70
2023/07/11 10:55:08;;;;;;;3.75;2.08;;;33.80;46.00;;;;;;2297085;54;21019;-70
2023/07/11 10:57:45;;;;;;;4.53;2.50;;;33.80;45.30;;;;;;2292556;54;21006;-70
2023/07/11 11:01:43;;;;;;;5.03;3.05;;;34.00;45.20;;;;;;2528287;54;21050;-70
2023/07/11 11:11:17;;;;;;;4.15;2.55;;;34.00;45.10;;;;;;2292832;54;20999;-71
2023/07/11 11:13:49;;;;;;;3.55;1.77;;;34.10;45.30;;;;;;2292637;55;21025;-71
2023/07/11 11:18:04;;;;;;;4.22;2.25;;;34.40;45.30;;;;;;2293223;54;20970;-72
2023/07/11 11:20:53;;;;;;;4.95;2.42;;;34.50;45.20;;;;;;2293318;54;20955;-69
2023/07/11 11:25:26;;;;;;;3.72;2.30;;;34.60;44.80;;;;;;2528280;54;21411;-71
2023/07/11 11:28:17;;;;;;;3.83;2.30;;;34.70;44.90;;;;;;2528113;54;21048;-71
2023/07/11 11:31:24;;;;;;;4.57;2.58;;;34.70;44.50;;;;;;2285678;55;20956;-70
2023/07/11 11:42:00;;;;;;;3.97;2.53;;;34.80;44.80;;;;;;2527946;54;20976;-70
2023/07/11 11:44:50;;;;;;;3.28;1.90;;;34.90;44.70;;;;;;2292178;55;20996;-70
2023/07/11 11:47:19;;;;;;;5.22;2.37;;;35.30;44.70;;;;;;2533349;53;21061;-70
2023/07/11 11:49:48;;;;;;;4.32;2.70;;;35.30;44.60;;;;;;2527311;54;21635;-70
2023/07/11 11:54:51;;;;;;;;;;;35.40;44.10;;;;;;2295775;54;21022;-71
2023/07/11 11:57:23;;;;;;;5.03;2.58;;;35.50;44.10;;;;;;2296162;55;20116;-72
2023/07/11 11:59:49;;;;;;;3.80;2.50;;;35.70;43.80;;;;;;2533551;53;22154;-72
2023/07/11 12:02:38;;;;;;;4.03;2.83;;;35.80;43.90;;;;;;2279880;55;21117;-71
2023/07/11 12:05:17;;;;;;;4.22;2.80;;;35.80;43.70;;;;;;2289714;54;21030;-70
2023/07/11 12:07:43;;;;;;;4.78;2.87;;;35.90;43.30;;;;;;2526127;54;20927;-72
2023/07/11 12:10:19;;;;;;;5.87;2.97;;;36.00;43.50;;;;;;2528546;54;20974;-74
2023/07/11 12:13:05;;;;;;;6.40;3.42;;;36.00;43.20;;;;;;2526816;54;21687;-71
2023/07/11 12:15:35;;;;;;;5.57;2.80;;;36.10;42.70;;;;;;2292719;54;20951;-71
2023/07/11 12:18:27;;;;;;;4.65;2.85;;;36.20;42.80;;;;;;2527285;54;21078;-72
2023/07/11 12:21:58;;;;;;;4.00;2.67;;;36.20;42.50;;;;;;2293770;55;21005;-72
2023/07/11 12:24:39;;;;;;;4.65;3.00;;;36.30;42.60;;;;;;2528205;53;20934;-76
2023/07/11 12:28:20;;;;;;;4.28;2.85;;;36.40;42.70;;;;;;2292211;55;20913;-74
2023/07/11 12:30:50;;;;;;;4.87;2.62;;;36.50;42.40;;;;;;2527158;54;21040;-73
2023/07/11 12:33:33;;;;;;;4.87;3.30;;;36.50;42.60;;;;;;2293124;55;21358;-74
2023/07/11 12:36:46;;;;;;;4.90;3.35;;;36.60;42.00;;;;;;2529145;54;21441;-72
2023/07/11 12:40:00;;;;;;;4.60;2.92;;;36.60;41.70;;;;;;2524485;54;21019;-72
2023/07/11 12:44:00;;;;;;;4.45;2.55;;;36.70;41.80;;;;;;2521908;54;20993;-73
2023/07/11 12:46:34;;;;;;;4.68;2.72;;;36.80;42.60;;;;;;2292856;55;21036;-72
2023/07/11 12:49:03;;;;;;;3.62;2.28;;;36.80;42.10;;;;;;2527454;54;20940;-72
2023/07/11 12:51:33;;;;;;;4.37;2.78;;;36.90;42.10;;;;;;2528439;54;20904;-73
2023/07/11 12:55:02;;;;;;;5.17;2.87;;;36.90;41.70;;;;;;2292829;56;20916;-72
2023/07/11 12:57:29;;;;;;;5.20;2.60;;;37.00;41.50;;;;;;2293316;55;20968;-71
2023/07/11 12:59:56;;;;;;;5.07;3.03;;;37.10;41.40;;;;;;2292025;56;20896;-71
2023/07/11 13:02:27;;;;;;;4.97;2.70;;;37.10;41.30;;;;;;2293186;56;21039;-73
2023/07/11 13:04:57;;;;;;;4.75;3.12;;;37.20;41.10;;;;;;2528103;54;20893;-72
2023/07/11 13:07:26;;;;;;;5.40;2.95;;;37.20;41.00;;;;;;2292833;55;21999;-72
2023/07/11 13:09:56;;;;;;;4.75;3.20;;;37.30;40.90;;;;;;2293111;55;21413;-71
2023/07/11 13:12:34;;;;;;;3.92;2.78;;;37.40;40.60;;;;;;2292525;55;21036;-71
2023/07/11 13:15:12;;;;;;;4.28;2.22;;;37.40;40.20;;;;;;2528191;54;20935;-71
2023/07/11 13:17:38;;;;;;;6.68;3.05;;;37.50;40.40;;;;;;2292274;56;20904;-70
2023/07/11 13:20:06;;;;;;;4.80;2.80;;;37.50;40.10;;;;;;2526277;54;20912;-71
2023/07/11 13:22:33;;;;;;;5.07;3.22;;;37.50;40.10;;;;;;2527600;54;21695;-70
2023/07/11 13:25:00;;;;;;;4.70;2.90;;;37.50;39.90;;;;;;2525936;54;20947;-71
2023/07/11 13:27:31;;;;;;;4.50;2.75;;;37.50;39.90;;;;;;2293368;55;20959;-72
2023/07/11 13:29:59;;;;;;;;;;;37.60;39.50;;;;;;2531151;54;20976;-74
2023/07/11 13:32:29;;;;;;;4.68;2.58;;;37.70;39.80;;;;;;2291683;55;20096;-71
2023/07/11 13:35:00;;;;;;;4.05;2.70;;;37.70;39.40;;;;;;2293244;55;20940;-70
2023/07/11 13:37:36;;;;;;;4.32;2.80;;;37.70;39.40;;;;;;2291420;56;20988;-70
2023/07/11 13:40:04;;;;;;;4.47;2.50;;;37.70;38.50;;;;;;2293228;55;20939;-70
2023/07/11 13:42:32;;;;;;;4.93;2.83;;;37.80;38.90;;;;;;2293680;55;21142;-73
2023/07/11 13:45:04;;;;;;;6.32;3.30;;;37.80;38.60;;;;;;2290700;55;21794;-72
2023/07/11 13:47:40;;;;;;;4.60;3.00;;;37.80;38.30;;;;;;2292962;55;21000;-71